Terminal Aerodrome Forecast
Issued by NWS

Home | Current Version | Previous Version | Text Only | Print | Product List | Glossary On
Versions: 1 2 3 4 5 6 7 8 9 10 11 12 13 14
000
FTUS42 KGSP 301752
TAFAND
TAF
KAND 301752Z 3018/0118 23010G30KT 1SM +TSRA SCT020 BKN045CB
     FM301900 23011KT 6SM TSRA BKN035CB
      TEMPO 3020/3022 4SM TSRA BKN040CB
     FM302200 24009KT P6SM VCTS BKN170CB
     FM010100 22006KT P6SM BKN100
     FM011600 25009KT P6SM SCT160 PROB30 0116/0117 4SM TSRA
      BKN040CB=

USA.gov is the U.S. government's official web portal to all federal, state and local government web resources and services.